Terminal Aerodrome Forecast
Issued by NWS Indianapolis, IN

Home | Current Version | Previous Version | Text Only | Print | Product List | Glossary On
Versions: 1 2 3 4 5 6 7 8 9 10 11 12 13 14 15 16 17 18 19 20 21 22 23 24 25 26 27 28
000
FTUS43 KIND 290500
TAFIND
TAF
KIND 290522Z 2906/3012 15005KT P6SM SCT250
     FM291500 18011KT P6SM SCT040
     FM291800 21013G22KT P6SM VCTS BKN045CB
     FM300200 20009KT P6SM BKN045=

USA.gov is the U.S. government's official web portal to all federal, state and local government web resources and services.